Hlavní strana
METAR-TAF:

METAR-TAF

Letiště :

Dušanbe, Tádžikistán

zeměpisná šířka: 38-33N, zeměpisná délka: 068-47E, výška: 803 m

Aktuální stav počasí

Zpráva byla vytvořena před 10 minutami, v 07:30 UTC
Východojihovýchodní vítr 8 kt
Teplota 28°C
Vlhkost vzduchu 23%
Tlak 1016 hPa
Viditelnost 10 km a více

METAR: UTDD 230730Z 11004MPS 9999 NSC 28/05 Q1016 R09/CLRD// NOSIG RMK QFE694/0925

Čas: 12:40 (07:40 UTC)

Předpověď počasí

Zpráva byla vytvořena před 1 hodinou a 40 minutami, v 06:00 UTC
Předpověď platná od 23 v 07 UTC do 23 v 19 UTC
Východojihovýchodní vítr 10 kt
Viditelnost: 8000 m
Polojasno ve výšce 6600 ft, Cumulonimbus.
Oblačno až skoro zataženo ve výšce 10000 ft
Změna
od 23 v 13 UTC do 23 v 15 UTC
vítr z různých směrů 4 kt
Dočasný
od 23 v 15 UTC do 23 v 19 UTC
Východoseverovýchodní vítr 10 kt

TAF: UTDD 230600Z 2307/2319 11005MPS 8000 SCT066CB BKN100 BECMG 2313/2315 VRB02MPS TEMPO 2315/2319 07005MPS

Stav a předpovědi počasí z více než 4 000 letišť (zprávy METAR a TAF).

Červené a žluté tečky na mapě představují dostupné meteorologické stanice.

Když kurzor umístíte na tečku, zobrazí se název stanice.

Pak kliknutím zobrazíte stav a předpověď počasí.

Chcete-li změnit mapu, kliknutím na zelené tlačítko se znaménkem +mapu přiblížíte, kliknutím na zelené tlačítko se znaménkem – mapu oddálíte a kliknutím na zelené šipky přejdete na sousední mapy.


METAR-TAF: